sensor_id;sensor_type;location;lat;lon;timestamp;pressure;altitude;pressure_sealevel;temperature;humidity
18918;BME280;9591;52.742;13.650;2023-03-25T00:00:36;99774.81;;;10.94;100.00
18918;BME280;9591;52.742;13.650;2023-03-25T00:03:24;99779.41;;;10.90;100.00
18918;BME280;9591;52.742;13.650;2023-03-25T00:06:12;99773.81;;;10.96;100.00
18918;BME280;9591;52.742;13.650;2023-03-25T00:08:59;99773.31;;;10.88;100.00
18918;BME280;9591;52.742;13.650;2023-03-25T00:11:49;99776.91;;;10.87;100.00
18918;BME280;9591;52.742;13.650;2023-03-25T00:14:36;99776.75;;;10.90;100.00
18918;BME280;9591;52.742;13.650;2023-03-25T00:17:25;99778.09;;;10.99;100.00
18918;BME280;9591;52.742;13.650;2023-03-25T00:20:13;99785.03;;;11.01;100.00
18918;BME280;9591;52.742;13.650;2023-03-25T00:23:00;99778.91;;;11.18;100.00
18918;BME280;9591;52.742;13.650;2023-03-25T00:25:48;99777.72;;;11.06;100.00
18918;BME280;9591;52.742;13.650;2023-03-25T00:28:39;99784.19;;;11.01;100.00
18918;BME280;9591;52.742;13.650;2023-03-25T00:31:25;99786.06;;;10.99;100.00
18918;BME280;9591;52.742;13.650;2023-03-25T00:34:12;99779.59;;;11.04;100.00
18918;BME280;9591;52.742;13.650;2023-03-25T00:36:59;99774.44;;;11.01;100.00
18918;BME280;9591;52.742;13.650;2023-03-25T00:39:47;99778.09;;;10.99;100.00
18918;BME280;9591;52.742;13.650;2023-03-25T00:42:33;99772.28;;;11.09;100.00
18918;BME280;9591;52.742;13.650;2023-03-25T00:45:22;99778.25;;;10.96;100.00
18918;BME280;9591;52.742;13.650;2023-03-25T00:48:09;99782.41;;;11.01;100.00
18918;BME280;9591;52.742;13.650;2023-03-25T00:50:55;99777.09;;;11.01;100.00
18918;BME280;9591;52.742;13.650;2023-03-25T00:53:42;99780.19;;;10.92;100.00
18918;BME280;9591;52.742;13.650;2023-03-25T00:56:30;99784.84;;;10.87;100.00
18918;BME280;9591;52.742;13.650;2023-03-25T00:59:16;99780.63;;;10.83;100.00
18918;BME280;9591;52.742;13.650;2023-03-25T01:02:04;99782.94;;;10.72;100.00
18918;BME280;9591;52.742;13.650;2023-03-25T01:04:51;99779.28;;;10.74;100.00
18918;BME280;9591;52.742;13.650;2023-03-25T01:07:39;99777.56;;;10.73;100.00
18918;BME280;9591;52.742;13.650;2023-03-25T01:10:26;99784.44;;;10.59;100.00
18918;BME280;9591;52.742;13.650;2023-03-25T01:13:14;99784.94;;;10.67;100.00
18918;BME280;9591;52.742;13.650;2023-03-25T01:16:05;99785.94;;;10.83;100.00
18918;BME280;9591;52.742;13.650;2023-03-25T01:18:54;99780.94;;;10.77;100.00
18918;BME280;9591;52.742;13.650;2023-03-25T01:21:42;99775.50;;;10.80;100.00
18918;BME280;9591;52.742;13.650;2023-03-25T01:24:29;99785.94;;;10.83;100.00
18918;BME280;9591;52.742;13.650;2023-03-25T01:27:16;99782.88;;;10.73;100.00
18918;BME280;9591;52.742;13.650;2023-03-25T01:30:04;99786.22;;;10.77;100.00
18918;BME280;9591;52.742;13.650;2023-03-25T01:32:51;99778.44;;;10.74;100.00
18918;BME280;9591;52.742;13.650;2023-03-25T01:35:39;99782.94;;;10.72;100.00
18918;BME280;9591;52.742;13.650;2023-03-25T01:38:26;99783.66;;;10.75;100.00
18918;BME280;9591;52.742;13.650;2023-03-25T01:41:14;99761.47;;;10.59;100.00
18918;BME280;9591;52.742;13.650;2023-03-25T01:44:06;99763.75;;;10.67;100.00
18918;BME280;9591;52.742;13.650;2023-03-25T01:46:55;99759.75;;;10.58;100.00
18918;BME280;9591;52.742;13.650;2023-03-25T01:49:44;99759.63;;;10.61;100.00
18918;BME280;9591;52.742;13.650;2023-03-25T01:52:33;99760.47;;;10.62;100.00
18918;BME280;9591;52.742;13.650;2023-03-25T01:55:20;99756.69;;;10.67;100.00
18918;BME280;9591;52.742;13.650;2023-03-25T01:58:10;99756.75;;;10.66;100.00
18918;BME280;9591;52.742;13.650;2023-03-25T02:01:00;99744.59;;;10.62;100.00
18918;BME280;9591;52.742;13.650;2023-03-25T02:03:49;99743.50;;;10.66;100.00
18918;BME280;9591;52.742;13.650;2023-03-25T02:06:41;99684.91;;;10.37;100.00
18918;BME280;9591;52.742;13.650;2023-03-25T02:09:30;99736.66;;;10.62;100.00
18918;BME280;9591;52.742;13.650;2023-03-25T02:12:17;99732.00;;;10.67;100.00
18918;BME280;9591;52.742;13.650;2023-03-25T02:15:05;99729.28;;;10.49;100.00
18918;BME280;9591;52.742;13.650;2023-03-25T02:18:12;99725.78;;;10.49;100.00
18918;BME280;9591;52.742;13.650;2023-03-25T02:24:54;99726.84;;;10.64;100.00
18918;BME280;9591;52.742;13.650;2023-03-25T02:27:53;99730.28;;;10.66;100.00
18918;BME280;9591;52.742;13.650;2023-03-25T02:31:04;99724.97;;;10.66;100.00
18918;BME280;9591;52.742;13.650;2023-03-25T02:34:20;99721.97;;;10.73;100.00
18918;BME280;9591;52.742;13.650;2023-03-25T02:40:43;99709.91;;;10.85;100.00
18918;BME280;9591;52.742;13.650;2023-03-25T02:43:35;99713.03;;;10.93;100.00
18918;BME280;9591;52.742;13.650;2023-03-25T02:46:28;99709.44;;;10.94;100.00
18918;BME280;9591;52.742;13.650;2023-03-25T02:49:21;99686.84;;;10.87;100.00
18918;BME280;9591;52.742;13.650;2023-03-25T02:52:13;99705.41;;;11.04;100.00
18918;BME280;9591;52.742;13.650;2023-03-25T02:55:04;99695.06;;;11.17;100.00
18918;BME280;9591;52.742;13.650;2023-03-25T02:57:56;99696.69;;;11.20;100.00
18918;BME280;9591;52.742;13.650;2023-03-25T03:00:45;99689.94;;;11.30;100.00
18918;BME280;9591;52.742;13.650;2023-03-25T03:03:32;99687.31;;;11.30;100.00
18918;BME280;9591;52.742;13.650;2023-03-25T03:06:20;99676.19;;;11.23;100.00
18918;BME280;9591;52.742;13.650;2023-03-25T03:09:20;99679.97;;;11.35;100.00
18918;BME280;9591;52.742;13.650;2023-03-25T03:12:19;99676.84;;;11.27;100.00
18918;BME280;9591;52.742;13.650;2023-03-25T03:15:22;99682.31;;;11.41;100.00
18918;BME280;9591;52.742;13.650;2023-03-25T03:18:15;99676.84;;;11.44;100.00
18918;BME280;9591;52.742;13.650;2023-03-25T03:21:09;99673.09;;;11.48;100.00
18918;BME280;9591;52.742;13.650;2023-03-25T03:24:01;99669.06;;;11.41;100.00
18918;BME280;9591;52.742;13.650;2023-03-25T03:26:54;99678.41;;;11.48;100.00
18918;BME280;9591;52.742;13.650;2023-03-25T03:29:44;99677.13;;;11.55;100.00
18918;BME280;9591;52.742;13.650;2023-03-25T03:32:38;99673.72;;;11.53;100.00
18918;BME280;9591;52.742;13.650;2023-03-25T03:35:30;99670.56;;;11.62;100.00
18918;BME280;9591;52.742;13.650;2023-03-25T03:38:23;99677.03;;;11.74;100.00
18918;BME280;9591;52.742;13.650;2023-03-25T03:41:12;99673.91;;;11.66;100.00
18918;BME280;9591;52.742;13.650;2023-03-25T03:44:03;99683.50;;;11.68;100.00
18918;BME280;9591;52.742;13.650;2023-03-25T03:46:55;99685.56;;;11.46;100.00
18918;BME280;9591;52.742;13.650;2023-03-25T03:49:48;99685.78;;;11.59;100.00
18918;BME280;9591;52.742;13.650;2023-03-25T03:52:40;99692.19;;;11.55;100.00
18918;BME280;9591;52.742;13.650;2023-03-25T03:55:32;99691.34;;;11.54;100.00
18918;BME280;9591;52.742;13.650;2023-03-25T03:58:27;99682.19;;;11.60;100.00
18918;BME280;9591;52.742;13.650;2023-03-25T04:01:18;99688.19;;;11.63;100.00
18918;BME280;9591;52.742;13.650;2023-03-25T04:04:14;99694.31;;;11.48;100.00
18918;BME280;9591;52.742;13.650;2023-03-25T04:07:06;99684.56;;;11.31;100.00
18918;BME280;9591;52.742;13.650;2023-03-25T04:09:59;99691.34;;;11.37;100.00
18918;BME280;9591;52.742;13.650;2023-03-25T04:12:51;99685.41;;;11.49;100.00
18918;BME280;9591;52.742;13.650;2023-03-25T04:15:39;99688.69;;;11.54;100.00
18918;BME280;9591;52.742;13.650;2023-03-25T04:18:26;99687.91;;;11.52;100.00
18918;BME280;9591;52.742;13.650;2023-03-25T04:21:13;99693.75;;;11.59;100.00
18918;BME280;9591;52.742;13.650;2023-03-25T04:24:03;99685.53;;;11.63;100.00
18918;BME280;9591;52.742;13.650;2023-03-25T04:26:52;99676.84;;;11.44;100.00
18918;BME280;9591;52.742;13.650;2023-03-25T04:29:42;99669.66;;;11.46;100.00
18918;BME280;9591;52.742;13.650;2023-03-25T04:32:29;99682.00;;;11.47;100.00
18918;BME280;9591;52.742;13.650;2023-03-25T04:35:19;99678.16;;;11.53;100.00
18918;BME280;9591;52.742;13.650;2023-03-25T04:38:07;99685.56;;;11.46;100.00
18918;BME280;9591;52.742;13.650;2023-03-25T04:40:55;99678.63;;;11.43;100.00
18918;BME280;9591;52.742;13.650;2023-03-25T04:43:44;99681.81;;;11.50;100.00
18918;BME280;9591;52.742;13.650;2023-03-25T04:46:31;99689.00;;;11.48;100.00
18918;BME280;9591;52.742;13.650;2023-03-25T04:49:20;99686.44;;;11.46;100.00
18918;BME280;9591;52.742;13.650;2023-03-25T04:52:07;99670.94;;;11.39;100.00
18918;BME280;9591;52.742;13.650;2023-03-25T04:54:54;99677.09;;;11.39;100.00
18918;BME280;9591;52.742;13.650;2023-03-25T04:57:43;99675.50;;;11.53;100.00
18918;BME280;9591;52.742;13.650;2023-03-25T05:00:31;99677.63;;;11.46;100.00
18918;BME280;9591;52.742;13.650;2023-03-25T05:03:18;99682.00;;;11.47;100.00
18918;BME280;9591;52.742;13.650;2023-03-25T05:06:08;99684.72;;;11.45;100.00
18918;BME280;9591;52.742;13.650;2023-03-25T05:08:55;99683.94;;;11.43;100.00
18918;BME280;9591;52.742;13.650;2023-03-25T05:11:42;99672.09;;;11.33;100.00
18918;BME280;9591;52.742;13.650;2023-03-25T05:14:30;99682.84;;;11.30;100.00
18918;BME280;9591;52.742;13.650;2023-03-25T05:17:17;99690.41;;;11.38;100.00
18918;BME280;9591;52.742;13.650;2023-03-25T05:20:05;99680.66;;;11.38;100.00
18918;BME280;9591;52.742;13.650;2023-03-25T05:22:53;99680.88;;;11.51;100.00
18918;BME280;9591;52.742;13.650;2023-03-25T05:25:42;99681.28;;;11.43;100.00
18918;BME280;9591;52.742;13.650;2023-03-25T05:28:28;99676.53;;;11.33;100.00
18918;BME280;9591;52.742;13.650;2023-03-25T05:31:17;99668.44;;;11.36;100.00
18918;BME280;9591;52.742;13.650;2023-03-25T05:34:03;99673.47;;;11.58;100.00
18918;BME280;9591;52.742;13.650;2023-03-25T05:36:50;99674.81;;;11.49;100.00
18918;BME280;9591;52.742;13.650;2023-03-25T05:39:38;99670.06;;;11.38;100.00
18918;BME280;9591;52.742;13.650;2023-03-25T05:42:25;99678.56;;;11.45;100.00
18918;BME280;9591;52.742;13.650;2023-03-25T05:45:12;99677.63;;;11.46;100.00
18918;BME280;9591;52.742;13.650;2023-03-25T05:48:01;99672.47;;;11.43;100.00
18918;BME280;9591;52.742;13.650;2023-03-25T05:50:48;99665.63;;;11.39;100.00
18918;BME280;9591;52.742;13.650;2023-03-25T05:53:35;99668.50;;;11.52;100.00
18918;BME280;9591;52.742;13.650;2023-03-25T05:56:22;99670.13;;;11.54;100.00
18918;BME280;9591;52.742;13.650;2023-03-25T05:59:08;99666.13;;;11.63;100.00
18918;BME280;9591;52.742;13.650;2023-03-25T06:01:55;99678.91;;;11.72;100.00
18918;BME280;9591;52.742;13.650;2023-03-25T06:04:43;99683.91;;;11.78;100.00
18918;BME280;9591;52.742;13.650;2023-03-25T06:07:31;99684.69;;;11.80;100.00
18918;BME280;9591;52.742;13.650;2023-03-25T06:10:18;99692.88;;;12.08;100.00
18918;BME280;9591;52.742;13.650;2023-03-25T06:13:05;99690.72;;;12.46;100.00
18918;BME280;9591;52.742;13.650;2023-03-25T06:15:52;99695.84;;;12.81;100.00
18918;BME280;9591;52.742;13.650;2023-03-25T06:18:40;99695.59;;;12.54;100.00
18918;BME280;9591;52.742;13.650;2023-03-25T06:21:30;99639.97;;;12.05;100.00
18918;BME280;9591;52.742;13.650;2023-03-25T06:24:18;99707.41;;;12.17;100.00
18918;BME280;9591;52.742;13.650;2023-03-25T06:27:07;99698.50;;;12.02;100.00
18918;BME280;9591;52.742;13.650;2023-03-25T06:29:54;99698.59;;;12.01;100.00
18918;BME280;9591;52.742;13.650;2023-03-25T06:32:41;99701.41;;;11.98;100.00
18918;BME280;9591;52.742;13.650;2023-03-25T06:35:28;99702.09;;;12.17;100.00
18918;BME280;9591;52.742;13.650;2023-03-25T06:38:16;99697.13;;;12.27;100.00
18918;BME280;9591;52.742;13.650;2023-03-25T06:41:21;99705.94;;;11.96;100.00
18918;BME280;9591;52.742;13.650;2023-03-25T06:44:33;99711.94;;;12.15;100.00
18918;BME280;9591;52.742;13.650;2023-03-25T06:47:40;99702.38;;;12.12;100.00
18918;BME280;9591;52.742;13.650;2023-03-25T06:50:27;99715.53;;;12.14;100.00
18918;BME280;9591;52.742;13.650;2023-03-25T06:53:16;99717.44;;;12.28;100.00
18918;BME280;9591;52.742;13.650;2023-03-25T06:56:02;99716.06;;;12.21;100.00
18918;BME280;9591;52.742;13.650;2023-03-25T06:58:49;99709.34;;;11.82;100.00
18918;BME280;9591;52.742;13.650;2023-03-25T07:01:35;99717.41;;;11.96;100.00
18918;BME280;9591;52.742;13.650;2023-03-25T07:04:22;99723.63;;;12.12;100.00
18918;BME280;9591;52.742;13.650;2023-03-25T07:07:09;99718.47;;;12.25;100.00
18918;BME280;9591;52.742;13.650;2023-03-25T07:09:57;99721.63;;;12.32;100.00
18918;BME280;9591;52.742;13.650;2023-03-25T07:12:45;99714.28;;;12.53;100.00
18918;BME280;9591;52.742;13.650;2023-03-25T07:15:31;99713.25;;;12.55;100.00
18918;BME280;9591;52.742;13.650;2023-03-25T07:18:18;99710.59;;;12.71;100.00
18918;BME280;9591;52.742;13.650;2023-03-25T07:21:05;99715.28;;;12.82;100.00
18918;BME280;9591;52.742;13.650;2023-03-25T07:23:52;99718.13;;;12.78;100.00
18918;BME280;9591;52.742;13.650;2023-03-25T07:26:40;99719.66;;;13.12;100.00
18918;BME280;9591;52.742;13.650;2023-03-25T07:29:28;99710.31;;;13.05;100.00
18918;BME280;9591;52.742;13.650;2023-03-25T07:32:15;99712.34;;;13.32;100.00
18918;BME280;9591;52.742;13.650;2023-03-25T07:35:02;99706.53;;;13.25;100.00
18918;BME280;9591;52.742;13.650;2023-03-25T07:37:49;99708.78;;;13.17;100.00
18918;BME280;9591;52.742;13.650;2023-03-25T07:40:36;99707.91;;;12.87;100.00
18918;BME280;9591;52.742;13.650;2023-03-25T07:43:24;99710.91;;;12.96;100.00
18918;BME280;9591;52.742;13.650;2023-03-25T07:46:13;99708.38;;;13.39;98.21
18918;BME280;9591;52.742;13.650;2023-03-25T07:49:00;99708.75;;;13.33;98.03
18918;BME280;9591;52.742;13.650;2023-03-25T07:51:47;99708.22;;;13.56;97.98
18918;BME280;9591;52.742;13.650;2023-03-25T07:54:33;99713.56;;;13.26;94.53
18918;BME280;9591;52.742;13.650;2023-03-25T07:57:20;99715.38;;;13.84;93.32
18918;BME280;9591;52.742;13.650;2023-03-25T08:00:10;99714.78;;;13.93;92.63
18918;BME280;9591;52.742;13.650;2023-03-25T08:02:56;99720.38;;;14.17;92.58
18918;BME280;9591;52.742;13.650;2023-03-25T08:05:44;99715.81;;;14.48;88.17
18918;BME280;9591;52.742;13.650;2023-03-25T08:08:32;99723.13;;;14.85;84.27
18918;BME280;9591;52.742;13.650;2023-03-25T08:11:18;99721.78;;;15.32;83.21
18918;BME280;9591;52.742;13.650;2023-03-25T08:14:06;99720.56;;;15.23;80.97
18918;BME280;9591;52.742;13.650;2023-03-25T08:16:54;99716.41;;;14.92;80.99
18918;BME280;9591;52.742;13.650;2023-03-25T08:19:40;99718.53;;;14.87;80.86
18918;BME280;9591;52.742;13.650;2023-03-25T08:22:27;99714.25;;;14.72;81.44
18918;BME280;9591;52.742;13.650;2023-03-25T08:25:14;99730.19;;;14.45;81.79
18918;BME280;9591;52.742;13.650;2023-03-25T08:28:01;99700.03;;;14.16;81.25
18918;BME280;9591;52.742;13.650;2023-03-25T08:30:48;99718.66;;;14.59;79.07
18918;BME280;9591;52.742;13.650;2023-03-25T08:33:41;99705.16;;;14.74;78.47
18918;BME280;9591;52.742;13.650;2023-03-25T08:36:27;99711.53;;;14.45;80.59
18918;BME280;9591;52.742;13.650;2023-03-25T08:39:14;99722.66;;;14.52;77.18
18918;BME280;9591;52.742;13.650;2023-03-25T08:42:01;99718.19;;;14.79;77.15
18918;BME280;9591;52.742;13.650;2023-03-25T08:44:48;99718.16;;;14.66;77.77
18918;BME280;9591;52.742;13.650;2023-03-25T08:47:35;99714.75;;;14.36;74.82
18918;BME280;9591;52.742;13.650;2023-03-25T08:50:23;99720.50;;;14.44;75.68
18918;BME280;9591;52.742;13.650;2023-03-25T08:53:10;99715.63;;;14.22;75.51
18918;BME280;9591;52.742;13.650;2023-03-25T08:55:57;99720.47;;;13.59;75.23
18918;BME280;9591;52.742;13.650;2023-03-25T08:58:44;99730.75;;;13.93;75.66
18918;BME280;9591;52.742;13.650;2023-03-25T09:01:32;99725.44;;;14.07;75.10
18918;BME280;9591;52.742;13.650;2023-03-25T09:04:19;99719.81;;;14.12;73.44
18918;BME280;9591;52.742;13.650;2023-03-25T09:07:07;99736.06;;;13.93;73.10
18918;BME280;9591;52.742;13.650;2023-03-25T09:09:57;99727.44;;;14.04;74.20
18918;BME280;9591;52.742;13.650;2023-03-25T09:12:43;99728.19;;;13.92;72.09
18918;BME280;9591;52.742;13.650;2023-03-25T09:15:30;99721.53;;;13.70;73.62
18918;BME280;9591;52.742;13.650;2023-03-25T09:18:17;99717.09;;;13.85;72.77
18918;BME280;9591;52.742;13.650;2023-03-25T09:21:04;99727.72;;;14.14;72.88
18918;BME280;9591;52.742;13.650;2023-03-25T09:23:52;99722.47;;;14.55;70.75
18918;BME280;9591;52.742;13.650;2023-03-25T09:26:39;99724.88;;;14.45;70.74
18918;BME280;9591;52.742;13.650;2023-03-25T09:29:26;99720.81;;;14.66;69.55
18918;BME280;9591;52.742;13.650;2023-03-25T09:32:13;99727.19;;;14.64;70.63
18918;BME280;9591;52.742;13.650;2023-03-25T09:35:02;99726.34;;;14.63;71.56
18918;BME280;9591;52.742;13.650;2023-03-25T09:37:48;99732.66;;;14.48;72.84
18918;BME280;9591;52.742;13.650;2023-03-25T09:40:39;99734.34;;;14.63;76.12
18918;BME280;9591;52.742;13.650;2023-03-25T09:43:32;99736.94;;;14.51;72.36
18918;BME280;9591;52.742;13.650;2023-03-25T09:46:22;99734.84;;;14.41;72.19
18918;BME280;9591;52.742;13.650;2023-03-25T09:49:13;99738.75;;;14.22;72.80
18918;BME280;9591;52.742;13.650;2023-03-25T09:52:01;99726.28;;;14.51;77.11
18918;BME280;9591;52.742;13.650;2023-03-25T09:54:51;99722.47;;;14.55;73.90
18918;BME280;9591;52.742;13.650;2023-03-25T09:57:45;99709.91;;;14.57;74.44
18918;BME280;9591;52.742;13.650;2023-03-25T10:00:33;99715.94;;;14.73;73.78
18918;BME280;9591;52.742;13.650;2023-03-25T10:03:23;99722.66;;;15.05;74.09
18918;BME280;9591;52.742;13.650;2023-03-25T10:06:14;99721.50;;;14.83;72.62
18918;BME280;9591;52.742;13.650;2023-03-25T10:09:14;99723.25;;;14.96;71.31
18918;BME280;9591;52.742;13.650;2023-03-25T10:12:11;99718.78;;;14.97;71.09
18918;BME280;9591;52.742;13.650;2023-03-25T10:15:13;99722.13;;;15.53;72.71
18918;BME280;9591;52.742;13.650;2023-03-25T10:18:19;99714.78;;;15.56;69.95
18918;BME280;9591;52.742;13.650;2023-03-25T10:21:13;99702.97;;;15.21;70.48
18918;BME280;9591;52.742;13.650;2023-03-25T10:24:09;99711.69;;;14.83;69.99
18918;BME280;9591;52.742;13.650;2023-03-25T10:27:00;99724.47;;;15.05;71.25
18918;BME280;9591;52.742;13.650;2023-03-25T10:29:51;99707.75;;;15.16;68.77
18918;BME280;9591;52.742;13.650;2023-03-25T10:32:44;99673.53;;;14.83;69.91
18918;BME280;9591;52.742;13.650;2023-03-25T10:35:36;99716.75;;;15.27;70.67
18918;BME280;9591;52.742;13.650;2023-03-25T10:38:24;99721.47;;;14.70;72.95
18918;BME280;9591;52.742;13.650;2023-03-25T10:41:19;99714.53;;;14.67;70.26
18918;BME280;9591;52.742;13.650;2023-03-25T10:44:08;99706.50;;;15.34;71.71
18918;BME280;9591;52.742;13.650;2023-03-25T10:46:58;99715.00;;;15.14;66.66
18918;BME280;9591;52.742;13.650;2023-03-25T10:49:51;99708.25;;;15.48;68.51
18918;BME280;9591;52.742;13.650;2023-03-25T10:52:39;99711.91;;;15.85;66.24
18918;BME280;9591;52.742;13.650;2023-03-25T10:55:29;99699.59;;;16.08;65.43
18918;BME280;9591;52.742;13.650;2023-03-25T10:58:19;99704.28;;;16.17;62.95
18918;BME280;9591;52.742;13.650;2023-03-25T11:01:10;99700.38;;;15.97;64.19
18918;BME280;9591;52.742;13.650;2023-03-25T11:03:58;99690.53;;;16.10;62.42
18918;BME280;9591;52.742;13.650;2023-03-25T11:06:51;99694.34;;;16.19;63.21
18918;BME280;9591;52.742;13.650;2023-03-25T11:09:39;99691.22;;;16.37;64.31
18918;BME280;9591;52.742;13.650;2023-03-25T11:12:26;99685.13;;;16.72;58.82
18918;BME280;9591;52.742;13.650;2023-03-25T11:15:29;99693.66;;;16.77;60.35
18918;BME280;9591;52.742;13.650;2023-03-25T11:18:20;99684.78;;;16.64;60.64
18918;BME280;9591;52.742;13.650;2023-03-25T11:21:10;99676.47;;;16.32;60.00
18918;BME280;9591;52.742;13.650;2023-03-25T11:23:59;99663.97;;;16.69;59.88
18918;BME280;9591;52.742;13.650;2023-03-25T11:26:47;99683.13;;;16.50;59.08
18918;BME280;9591;52.742;13.650;2023-03-25T11:29:36;99673.09;;;16.17;60.80
18918;BME280;9591;52.742;13.650;2023-03-25T11:32:31;99683.72;;;15.81;61.31
18918;BME280;9591;52.742;13.650;2023-03-25T11:35:24;99677.84;;;15.50;61.70
18918;BME280;9591;52.742;13.650;2023-03-25T11:38:13;99673.66;;;16.10;62.03
18918;BME280;9591;52.742;13.650;2023-03-25T11:41:02;99683.28;;;15.99;63.37
18918;BME280;9591;52.742;13.650;2023-03-25T11:43:49;99676.66;;;15.80;62.73
18918;BME280;9591;52.742;13.650;2023-03-25T11:46:40;99671.41;;;15.40;62.23
18918;BME280;9591;52.742;13.650;2023-03-25T11:49:29;99673.66;;;15.33;64.04
18918;BME280;9591;52.742;13.650;2023-03-25T11:52:24;99670.78;;;15.62;65.27
18918;BME280;9591;52.742;13.650;2023-03-25T11:55:15;99666.72;;;15.44;63.96
18918;BME280;9591;52.742;13.650;2023-03-25T11:58:04;99676.47;;;15.57;62.56
18918;BME280;9591;52.742;13.650;2023-03-25T12:01:00;99661.72;;;15.77;64.26
18918;BME280;9591;52.742;13.650;2023-03-25T12:03:47;99666.94;;;15.66;62.81
18918;BME280;9591;52.742;13.650;2023-03-25T12:06:34;99675.59;;;15.69;62.34
18918;BME280;9591;52.742;13.650;2023-03-25T12:09:21;99668.63;;;16.05;61.55
18918;BME280;9591;52.742;13.650;2023-03-25T12:12:32;99653.97;;;16.23;63.54
18918;BME280;9591;52.742;13.650;2023-03-25T12:15:34;99654.56;;;16.39;59.70
18918;BME280;9591;52.742;13.650;2023-03-25T12:18:53;99659.78;;;15.79;59.81
18918;BME280;9591;52.742;13.650;2023-03-25T12:22:02;99657.13;;;15.92;62.75
18918;BME280;9591;52.742;13.650;2023-03-25T12:25:03;99643.25;;;15.61;62.42
18918;BME280;9591;52.742;13.650;2023-03-25T12:31:33;99645.59;;;15.79;60.55
18918;BME280;9591;52.742;13.650;2023-03-25T12:34:32;99647.25;;;16.18;62.73
18918;BME280;9591;52.742;13.650;2023-03-25T12:37:30;99661.06;;;15.99;64.94
18918;BME280;9591;52.742;13.650;2023-03-25T12:40:29;99652.00;;;15.38;77.90
18918;BME280;9591;52.742;13.650;2023-03-25T12:43:27;99643.31;;;15.09;84.81
18918;BME280;9591;52.742;13.650;2023-03-25T12:46:25;99635.97;;;15.13;86.03
18918;BME280;9591;52.742;13.650;2023-03-25T12:49:26;99628.16;;;15.09;85.07
18918;BME280;9591;52.742;13.650;2023-03-25T12:52:23;99630.63;;;15.13;84.06
18918;BME280;9591;52.742;13.650;2023-03-25T12:55:24;99618.69;;;15.31;85.47
18918;BME280;9591;52.742;13.650;2023-03-25T12:58:29;99622.25;;;15.57;82.02
18918;BME280;9591;52.742;13.650;2023-03-25T13:01:30;99628.41;;;15.70;79.24
18918;BME280;9591;52.742;13.650;2023-03-25T13:04:36;99615.84;;;15.59;75.38
18918;BME280;9591;52.742;13.650;2023-03-25T13:07:31;99628.84;;;15.77;75.80
18918;BME280;9591;52.742;13.650;2023-03-25T13:10:22;99630.22;;;15.44;77.47
18918;BME280;9591;52.742;13.650;2023-03-25T13:13:13;99646.63;;;15.13;80.10
18918;BME280;9591;52.742;13.650;2023-03-25T13:16:05;99675.22;;;14.01;90.96
18918;BME280;9591;52.742;13.650;2023-03-25T13:18:59;99654.16;;;13.56;96.58
18918;BME280;9591;52.742;13.650;2023-03-25T13:21:51;99654.44;;;13.37;100.00
18918;BME280;9591;52.742;13.650;2023-03-25T13:24:44;99648.84;;;13.70;100.00
18918;BME280;9591;52.742;13.650;2023-03-25T13:27:39;99638.31;;;13.68;100.00
18918;BME280;9591;52.742;13.650;2023-03-25T13:30:31;99630.13;;;13.86;100.00
18918;BME280;9591;52.742;13.650;2023-03-25T13:33:22;99638.06;;;14.00;100.00
18918;BME280;9591;52.742;13.650;2023-03-25T13:36:14;99638.44;;;14.08;100.00
18918;BME280;9591;52.742;13.650;2023-03-25T13:39:12;99612.91;;;14.32;100.00
18918;BME280;9591;52.742;13.650;2023-03-25T13:42:06;99623.44;;;14.48;100.00
18918;BME280;9591;52.742;13.650;2023-03-25T13:45:00;99629.41;;;14.52;100.00
18918;BME280;9591;52.742;13.650;2023-03-25T13:47:52;99622.78;;;14.71;100.00
18918;BME280;9591;52.742;13.650;2023-03-25T13:50:40;99625.34;;;14.73;100.00
18918;BME280;9591;52.742;13.650;2023-03-25T13:53:30;99623.06;;;14.40;100.00
18918;BME280;9591;52.742;13.650;2023-03-25T13:57:00;99622.13;;;14.27;100.00
18918;BME280;9591;52.742;13.650;2023-03-25T14:00:13;99624.25;;;14.22;100.00
18918;BME280;9591;52.742;13.650;2023-03-25T14:06:51;99617.03;;;14.09;100.00
18918;BME280;9591;52.742;13.650;2023-03-25T14:10:22;99624.72;;;14.14;100.00
18918;BME280;9591;52.742;13.650;2023-03-25T14:13:14;99624.84;;;14.54;100.00
18918;BME280;9591;52.742;13.650;2023-03-25T14:16:05;99625.03;;;14.51;100.00
18918;BME280;9591;52.742;13.650;2023-03-25T14:18:58;99609.56;;;14.29;100.00
18918;BME280;9591;52.742;13.650;2023-03-25T14:21:48;99617.00;;;14.24;97.17
18918;BME280;9591;52.742;13.650;2023-03-25T14:24:35;99578.88;;;14.23;97.11
18918;BME280;9591;52.742;13.650;2023-03-25T14:27:23;99603.09;;;14.47;94.56
18918;BME280;9591;52.742;13.650;2023-03-25T14:30:18;99601.34;;;14.73;90.04
18918;BME280;9591;52.742;13.650;2023-03-25T14:33:07;99596.94;;;14.59;87.69
18918;BME280;9591;52.742;13.650;2023-03-25T14:35:55;99583.13;;;14.80;84.23
18918;BME280;9591;52.742;13.650;2023-03-25T14:38:52;99589.69;;;14.34;77.63
18918;BME280;9591;52.742;13.650;2023-03-25T14:41:56;99601.75;;;14.80;81.67
18918;BME280;9591;52.742;13.650;2023-03-25T14:44:43;99601.63;;;14.56;78.03
18918;BME280;9591;52.742;13.650;2023-03-25T14:47:35;99600.66;;;14.57;83.18
18918;BME280;9591;52.742;13.650;2023-03-25T14:50:31;99611.22;;;14.58;80.11
18918;BME280;9591;52.742;13.650;2023-03-25T14:53:19;99602.91;;;14.36;79.74
18918;BME280;9591;52.742;13.650;2023-03-25T14:56:07;99612.44;;;14.67;78.91
18918;BME280;9591;52.742;13.650;2023-03-25T14:59:06;99606.59;;;14.48;78.09
18918;BME280;9591;52.742;13.650;2023-03-25T15:01:59;99623.25;;;14.37;80.05
18918;BME280;9591;52.742;13.650;2023-03-25T15:04:54;99635.66;;;14.24;82.13
18918;BME280;9591;52.742;13.650;2023-03-25T15:07:45;99639.69;;;14.02;87.22
18918;BME280;9591;52.742;13.650;2023-03-25T15:10:34;99642.78;;;13.82;93.53
18918;BME280;9591;52.742;13.650;2023-03-25T15:13:25;99640.28;;;13.51;95.76